Time;durP1;ratioP1;P1;durP2;ratioP2;P2;SDS_P1;SDS_P2;PMS_P1;PMS_P2;Temp;Humidity;BMP_temperature;BMP_pressure;BME280_temperature;BME280_humidity;BME280_pressure;Samples;Min_cycle;Max_cycle;Signal;HPM_P1;HPM_P2
2023/12/31 00:01:22;;;;;;;9.00;3.28;;;10.10;90.20;;;;;;5053464;28;20111;-75
2023/12/31 00:03:48;;;;;;;6.65;3.03;;;10.10;90.30;;;;;;5055360;28;20461;-77
2023/12/31 00:06:13;;;;;;;6.65;3.00;;;10.10;90.30;;;;;;5034967;28;20295;-78
2023/12/31 00:08:39;;;;;;;7.57;3.08;;;10.10;90.30;;;;;;5052077;28;20037;-76
2023/12/31 00:11:05;;;;;;;5.55;2.42;;;10.10;90.10;;;;;;5056538;28;20457;-74
2023/12/31 00:13:30;;;;;;;6.10;2.60;;;10.10;90.20;;;;;;5055893;28;20055;-76
2023/12/31 00:15:56;;;;;;;6.28;3.05;;;10.10;90.10;;;;;;5055755;28;20060;-75
2023/12/31 00:18:21;;;;;;;5.85;2.83;;;10.20;90.00;;;;;;5042297;28;20033;-76
2023/12/31 00:20:47;;;;;;;8.23;3.78;;;10.30;89.80;;;;;;5057472;28;20029;-78
2023/12/31 00:23:13;;;;;;;5.50;2.70;;;10.30;89.60;;;;;;5082646;28;20033;-74
2023/12/31 00:25:39;;;;;;;5.28;2.55;;;10.30;89.50;;;;;;5085967;28;20032;-74
2023/12/31 00:28:05;;;;;;;4.50;2.28;;;10.40;89.10;;;;;;5077850;28;20021;-73
2023/12/31 00:30:31;;;;;;;6.72;2.95;;;10.40;89.00;;;;;;5078351;28;20025;-76
2023/12/31 00:32:56;;;;;;;8.65;3.05;;;10.40;89.10;;;;;;5076393;28;20040;-75
2023/12/31 00:35:22;;;;;;;5.82;2.70;;;10.40;89.00;;;;;;5071141;28;20031;-76
2023/12/31 00:37:48;;;;;;;4.60;2.65;;;10.50;89.00;;;;;;5063196;28;20317;-76
2023/12/31 00:40:13;;;;;;;5.43;2.80;;;10.50;89.10;;;;;;5060975;28;20143;-76
2023/12/31 00:42:39;;;;;;;6.63;2.60;;;10.40;89.10;;;;;;5073510;28;20039;-78
2023/12/31 00:45:06;;;;;;;3.70;2.40;;;10.40;89.10;;;;;;5063338;28;20060;-75
2023/12/31 00:47:31;;;;;;;5.55;2.72;;;10.40;89.10;;;;;;5059458;28;20050;-76
2023/12/31 00:49:58;;;;;;;7.75;2.88;;;10.40;89.10;;;;;;5050470;28;20517;-75
2023/12/31 00:52:24;;;;;;;7.15;3.05;;;10.40;89.10;;;;;;5058331;28;20658;-77
2023/12/31 00:54:50;;;;;;;5.93;3.35;;;10.40;89.10;;;;;;5053065;28;20028;-77
2023/12/31 00:57:17;;;;;;;6.25;2.92;;;10.40;89.10;;;;;;5051229;28;20024;-76
2023/12/31 00:59:42;;;;;;;4.97;2.70;;;10.40;89.20;;;;;;5055242;28;20098;-76
2023/12/31 01:02:08;;;;;;;7.80;3.03;;;10.40;89.20;;;;;;5038954;28;20894;-76
2023/12/31 01:04:36;;;;;;;6.38;2.83;;;10.40;89.20;;;;;;5033482;28;20060;-76
2023/12/31 01:07:02;;;;;;;5.70;2.92;;;10.40;89.30;;;;;;5050665;28;20021;-77
2023/12/31 01:09:28;;;;;;;6.90;2.88;;;10.40;89.20;;;;;;5050554;28;20525;-77
2023/12/31 01:11:53;;;;;;;5.40;2.80;;;10.40;89.20;;;;;;5050986;28;20055;-78
2023/12/31 01:14:19;;;;;;;8.13;3.28;;;10.40;89.20;;;;;;5052872;28;20110;-76
2023/12/31 01:16:44;;;;;;;7.43;3.03;;;10.40;89.30;;;;;;5051049;28;20056;-76
2023/12/31 01:19:10;;;;;;;7.25;3.72;;;10.40;89.20;;;;;;5052951;28;20021;-77
2023/12/31 01:21:36;;;;;;;6.18;3.33;;;10.40;89.20;;;;;;5050771;28;20080;-75
2023/12/31 01:24:03;;;;;;;7.53;3.30;;;10.40;89.20;;;;;;5048180;28;20040;-76
2023/12/31 01:26:28;;;;;;;6.55;2.92;;;10.40;89.20;;;;;;5051390;28;20032;-75
2023/12/31 01:28:54;;;;;;;5.88;2.95;;;10.40;89.20;;;;;;5053980;28;20039;-76
2023/12/31 01:31:20;;;;;;;6.68;2.85;;;10.40;89.30;;;;;;5051620;28;20535;-77
2023/12/31 01:33:46;;;;;;;8.48;3.42;;;10.40;89.40;;;;;;5052853;28;20036;-76
2023/12/31 01:36:16;;;;;;;4.88;2.92;;;10.30;89.50;;;;;;5052709;28;20052;-76
2023/12/31 01:38:42;;;;;;;4.95;2.85;;;10.30;89.50;;;;;;5054897;28;20063;-76
2023/12/31 01:41:09;;;;;;;6.72;3.22;;;10.30;89.50;;;;;;5053490;28;20089;-76
2023/12/31 01:43:38;;;;;;;6.53;3.03;;;10.30;89.60;;;;;;5055675;28;20037;-76
2023/12/31 01:46:05;;;;;;;5.70;3.20;;;10.30;89.60;;;;;;5047474;28;20025;-76
2023/12/31 01:48:31;;;;;;;7.18;3.80;;;10.40;89.30;;;;;;5051001;28;20033;-74
2023/12/31 01:50:57;;;;;;;5.45;3.20;;;10.40;89.40;;;;;;5036935;28;20438;-75
2023/12/31 01:53:23;;;;;;;7.53;4.15;;;10.40;89.10;;;;;;5050637;28;20086;-76
2023/12/31 01:55:50;;;;;;;5.50;3.15;;;10.50;89.10;;;;;;5050418;28;20033;-76
2023/12/31 01:58:17;;;;;;;6.10;3.33;;;10.50;89.00;;;;;;5052415;28;20036;-78
2023/12/31 02:00:43;;;;;;;9.20;3.47;;;10.40;89.00;;;;;;5050044;28;20107;-76
2023/12/31 02:03:09;;;;;;;6.80;3.38;;;10.40;89.10;;;;;;5052035;28;20040;-76
2023/12/31 02:05:35;;;;;;;8.20;3.10;;;10.40;89.10;;;;;;5054546;28;20025;-77
2023/12/31 02:08:01;;;;;;;6.35;2.90;;;10.40;89.20;;;;;;5046612;28;20036;-76
2023/12/31 02:10:27;;;;;;;7.85;3.10;;;10.40;89.30;;;;;;5051328;28;20021;-76
2023/12/31 02:12:54;;;;;;;5.65;2.80;;;10.40;89.40;;;;;;5049197;28;20480;-76
2023/12/31 02:15:33;;;;;;;8.48;3.53;;;10.30;89.50;;;;;;5054638;28;20048;-75
2023/12/31 02:18:00;;;;;;;7.50;3.20;;;10.30;89.40;;;;;;5051566;28;20380;-76
2023/12/31 02:20:26;;;;;;;6.95;3.10;;;10.30;89.50;;;;;;5050149;28;20035;-75
2023/12/31 02:22:52;;;;;;;7.53;3.05;;;10.30;89.40;;;;;;5035808;28;20392;-77
2023/12/31 02:25:22;;;;;;;6.50;3.10;;;10.30;89.30;;;;;;5057287;28;20036;-76
2023/12/31 02:27:48;;;;;;;5.22;3.05;;;10.30;89.50;;;;;;5050688;28;20103;-76
2023/12/31 02:30:13;;;;;;;6.60;3.42;;;10.30;89.50;;;;;;5049752;28;20082;-76
2023/12/31 02:32:39;;;;;;;7.68;3.08;;;10.20;89.60;;;;;;5051688;28;20032;-76
2023/12/31 02:35:05;;;;;;;7.65;3.38;;;10.20;89.60;;;;;;5052923;28;20602;-75
2023/12/31 02:37:31;;;;;;;5.93;3.63;;;10.20;89.70;;;;;;5051467;28;20071;-77
2023/12/31 02:39:56;;;;;;;6.03;3.17;;;10.10;89.80;;;;;;5051566;28;20040;-75
2023/12/31 02:42:22;;;;;;;7.10;3.00;;;10.20;89.80;;;;;;5050204;28;20369;-77
2023/12/31 02:44:48;;;;;;;6.75;3.40;;;10.10;90.00;;;;;;5054564;28;20107;-76
2023/12/31 02:47:14;;;;;;;8.85;3.70;;;10.10;90.10;;;;;;5050467;28;20469;-77
2023/12/31 02:49:39;;;;;;;8.75;3.50;;;10.10;90.20;;;;;;5051042;28;20395;-76
2023/12/31 02:52:05;;;;;;;8.05;3.60;;;10.10;90.20;;;;;;5057182;28;20254;-74
2023/12/31 02:54:31;;;;;;;5.60;3.50;;;10.10;90.30;;;;;;5077543;28;20044;-75
2023/12/31 02:56:57;;;;;;;6.15;3.55;;;10.10;90.20;;;;;;5072200;28;20043;-78
2023/12/31 02:59:22;;;;;;;7.25;3.67;;;10.10;90.30;;;;;;5037984;28;20094;-76
2023/12/31 03:01:50;;;;;;;8.88;3.63;;;10.10;90.30;;;;;;5051100;28;20025;-77
2023/12/31 03:04:16;;;;;;;8.82;3.97;;;10.10;90.30;;;;;;5049022;28;20066;-77
2023/12/31 03:06:41;;;;;;;6.78;3.67;;;10.10;90.30;;;;;;5049491;28;20358;-77
2023/12/31 03:09:07;;;;;;;6.90;3.83;;;10.10;90.30;;;;;;5050241;28;20491;-77
2023/12/31 03:11:34;;;;;;;6.65;3.83;;;10.10;90.30;;;;;;5051023;28;20036;-76
2023/12/31 03:14:00;;;;;;;6.95;3.78;;;10.10;90.40;;;;;;5052482;28;20040;-75
2023/12/31 03:16:25;;;;;;;5.70;3.50;;;10.10;90.40;;;;;;5053843;28;20354;-77
2023/12/31 03:18:54;;;;;;;7.70;3.45;;;10.10;90.40;;;;;;5040999;28;20093;-77
2023/12/31 03:21:20;;;;;;;6.78;3.67;;;10.10;90.50;;;;;;5050378;28;20033;-77
2023/12/31 03:23:46;;;;;;;7.60;3.55;;;10.10;90.50;;;;;;5041020;28;20172;-76
2023/12/31 03:26:11;;;;;;;7.05;3.45;;;10.10;90.40;;;;;;5054993;28;20567;-76
2023/12/31 03:28:37;;;;;;;7.35;3.75;;;10.10;90.40;;;;;;5053327;28;20388;-76
2023/12/31 03:31:03;;;;;;;6.63;3.63;;;10.10;90.50;;;;;;5058430;28;20055;-76
2023/12/31 03:33:29;;;;;;;5.45;3.13;;;10.10;90.50;;;;;;5054174;28;20095;-76
2023/12/31 03:35:55;;;;;;;5.72;3.30;;;10.10;90.40;;;;;;5053473;28;20028;-77
2023/12/31 03:38:21;;;;;;;7.43;3.75;;;10.10;90.40;;;;;;5053407;28;20037;-77
2023/12/31 03:40:47;;;;;;;6.55;3.58;;;10.10;90.40;;;;;;5058088;28;20391;-76
2023/12/31 03:43:13;;;;;;;6.43;3.70;;;10.10;90.40;;;;;;5052620;28;21034;-77
2023/12/31 03:45:38;;;;;;;6.10;3.53;;;10.00;90.40;;;;;;5055901;28;20173;-78
2023/12/31 03:48:05;;;;;;;5.88;3.50;;;10.10;90.30;;;;;;5051022;28;20114;-75
2023/12/31 03:50:30;;;;;;;6.50;3.85;;;10.00;90.30;;;;;;5053394;28;20021;-75
2023/12/31 03:52:56;;;;;;;7.57;3.75;;;10.00;90.40;;;;;;5054284;28;20028;-77
2023/12/31 03:55:22;;;;;;;8.07;3.38;;;10.00;90.50;;;;;;5039295;28;20159;-76
2023/12/31 03:57:48;;;;;;;6.10;3.58;;;10.00;90.50;;;;;;5054648;28;20061;-76
2023/12/31 04:00:14;;;;;;;6.00;3.60;;;10.00;90.40;;;;;;5053343;28;20505;-76
2023/12/31 04:02:39;;;;;;;8.93;4.28;;;10.00;90.40;;;;;;5039156;28;20048;-76
2023/12/31 04:05:06;;;;;;;11.52;3.80;;;9.90;90.40;;;;;;5053930;28;20386;-74
2023/12/31 04:07:31;;;;;;;6.90;3.33;;;10.00;90.40;;;;;;5054720;28;20020;-76
2023/12/31 04:09:57;;;;;;;7.82;3.50;;;9.90;90.40;;;;;;5055493;28;20107;-74
2023/12/31 04:12:23;;;;;;;5.75;3.25;;;10.00;90.30;;;;;;5055894;28;20346;-76
2023/12/31 04:14:48;;;;;;;8.50;4.15;;;10.00;90.10;;;;;;5055205;28;20047;-76
2023/12/31 04:17:14;;;;;;;5.30;3.08;;;10.00;90.20;;;;;;5051602;28;20445;-75
2023/12/31 04:19:40;;;;;;;6.45;3.92;;;10.00;90.10;;;;;;5057789;28;20028;-76
2023/12/31 04:22:05;;;;;;;5.80;3.28;;;10.00;89.90;;;;;;5048484;28;20104;-76
2023/12/31 04:24:31;;;;;;;6.07;3.63;;;10.00;89.90;;;;;;5051982;28;20032;-78
2023/12/31 04:26:57;;;;;;;6.65;3.35;;;10.00;89.80;;;;;;5040922;28;20037;-77
2023/12/31 04:29:23;;;;;;;8.40;3.47;;;10.10;89.80;;;;;;5053092;28;20148;-77
2023/12/31 04:31:48;;;;;;;6.43;3.65;;;10.10;89.70;;;;;;5049913;28;20374;-77
2023/12/31 04:34:14;;;;;;;7.88;3.97;;;10.10;89.70;;;;;;5053489;28;20047;-76
2023/12/31 04:36:46;;;;;;;5.85;3.53;;;10.10;89.80;;;;;;5035734;28;20035;-76
2023/12/31 04:39:12;;;;;;;6.28;3.58;;;10.00;89.80;;;;;;5050490;28;20496;-78
2023/12/31 04:41:38;;;;;;;6.43;3.42;;;10.00;89.80;;;;;;5035575;28;20027;-75
2023/12/31 04:44:04;;;;;;;7.25;3.53;;;10.10;89.70;;;;;;5050243;28;20772;-77
2023/12/31 04:46:30;;;;;;;7.60;3.58;;;10.10;89.60;;;;;;5061270;28;20020;-77
2023/12/31 04:48:56;;;;;;;6.63;3.42;;;10.10;89.40;;;;;;5049692;28;20052;-77
2023/12/31 04:51:26;;;;;;;7.63;3.80;;;10.10;89.50;;;;;;5056691;28;20036;-78
2023/12/31 04:53:53;;;;;;;7.93;4.10;;;10.10;89.40;;;;;;5053716;28;20100;-75
2023/12/31 04:56:20;;;;;;;6.85;3.72;;;10.10;89.40;;;;;;5053553;28;20052;-76
2023/12/31 04:58:48;;;;;;;6.60;3.78;;;10.10;89.20;;;;;;5058239;28;20040;-77
2023/12/31 05:01:14;;;;;;;6.80;3.90;;;10.10;89.10;;;;;;5052560;28;20082;-77
2023/12/31 05:03:39;;;;;;;6.68;3.70;;;10.10;89.60;;;;;;5051491;28;20044;-77
2023/12/31 05:06:05;;;;;;;6.68;3.42;;;10.20;89.70;;;;;;5060326;28;20086;-78
2023/12/31 05:08:31;;;;;;;7.18;4.20;;;10.30;89.80;;;;;;5074548;28;20028;-78
2023/12/31 05:10:57;;;;;;;6.32;3.40;;;10.20;90.10;;;;;;5052624;28;20028;-77
2023/12/31 05:13:23;;;;;;;6.07;3.75;;;10.20;90.20;;;;;;5052196;28;20021;-77
2023/12/31 05:15:48;;;;;;;6.30;4.00;;;10.20;90.50;;;;;;5048600;28;20040;-76
2023/12/31 05:18:14;;;;;;;5.90;3.50;;;10.20;90.60;;;;;;5050639;28;20032;-76
2023/12/31 05:20:40;;;;;;;5.70;3.55;;;10.10;90.70;;;;;;5052073;28;20081;-77
2023/12/31 05:23:05;;;;;;;7.35;3.65;;;10.10;91.00;;;;;;5049368;28;20032;-75
2023/12/31 05:25:31;;;;;;;6.50;3.40;;;10.20;90.70;;;;;;5050808;28;20029;-75
2023/12/31 05:27:56;;;;;;;6.30;3.08;;;10.20;90.50;;;;;;5056001;28;20043;-75
2023/12/31 05:30:22;;;;;;;6.07;3.13;;;10.20;90.50;;;;;;5049781;28;20096;-75
2023/12/31 05:32:48;;;;;;;6.10;3.50;;;10.20;90.60;;;;;;5051320;28;20449;-77
2023/12/31 05:35:13;;;;;;;6.47;3.13;;;10.20;90.80;;;;;;5052915;28;20021;-76
2023/12/31 05:37:39;;;;;;;5.70;3.20;;;10.20;90.70;;;;;;5054625;28;20043;-77
2023/12/31 05:40:05;;;;;;;6.13;3.60;;;10.20;90.90;;;;;;5049890;28;20131;-77
2023/12/31 05:42:31;;;;;;;8.05;4.00;;;10.10;91.00;;;;;;5050748;28;20044;-75
2023/12/31 05:44:57;;;;;;;7.43;3.30;;;10.10;91.00;;;;;;5053275;28;20234;-79
2023/12/31 05:47:22;;;;;;;5.90;3.30;;;10.10;90.90;;;;;;5047894;28;20370;-78
2023/12/31 05:49:48;;;;;;;7.30;3.50;;;10.10;90.90;;;;;;5053102;28;20111;-77
2023/12/31 05:52:14;;;;;;;6.30;3.47;;;10.20;90.90;;;;;;5056088;28;20063;-78
2023/12/31 05:54:39;;;;;;;5.60;3.70;;;10.10;90.90;;;;;;5051283;28;20560;-76
2023/12/31 05:57:05;;;;;;;6.55;3.40;;;10.10;90.90;;;;;;5047608;28;20524;-77
2023/12/31 05:59:31;;;;;;;6.05;3.40;;;10.10;91.10;;;;;;5051340;28;20032;-76
2023/12/31 06:01:56;;;;;;;6.13;3.75;;;10.10;91.10;;;;;;5052578;28;20115;-76
2023/12/31 06:04:23;;;;;;;6.55;3.67;;;10.10;91.20;;;;;;5051644;28;20021;-76
2023/12/31 06:06:48;;;;;;;7.45;3.30;;;10.20;91.10;;;;;;5048125;28;20074;-77
2023/12/31 06:09:14;;;;;;;5.85;3.65;;;10.20;91.10;;;;;;5049347;28;20029;-76
2023/12/31 06:11:40;;;;;;;5.63;3.20;;;10.20;90.80;;;;;;5051383;28;20028;-75
2023/12/31 06:14:07;;;;;;;6.75;3.47;;;10.20;90.70;;;;;;5048761;28;20051;-75
2023/12/31 06:16:32;;;;;;;5.75;3.38;;;10.30;90.70;;;;;;5050260;28;20045;-77
2023/12/31 06:18:58;;;;;;;5.47;3.08;;;10.30;90.70;;;;;;5051772;28;20032;-76
2023/12/31 06:21:24;;;;;;;5.05;3.00;;;10.40;90.70;;;;;;5050466;28;20565;-76
2023/12/31 06:23:50;;;;;;;6.38;3.05;;;10.40;90.90;;;;;;5052650;28;20024;-76
2023/12/31 06:26:16;;;;;;;5.05;2.80;;;10.40;90.80;;;;;;5052820;28;20052;-77
2023/12/31 06:28:42;;;;;;;6.30;3.10;;;10.40;91.00;;;;;;5052987;28;20048;-76
2023/12/31 06:31:10;;;;;;;8.07;3.47;;;10.40;91.40;;;;;;5046459;28;20149;-75
2023/12/31 06:33:36;;;;;;;7.30;2.90;;;10.40;92.30;;;;;;5052644;28;20123;-75
2023/12/31 06:36:02;;;;;;;5.25;3.10;;;10.30;92.60;;;;;;5050285;28;20031;-76
2023/12/31 06:38:28;;;;;;;5.85;2.85;;;10.10;92.80;;;;;;5051874;28;20108;-75
2023/12/31 06:40:54;;;;;;;3.45;2.00;;;10.10;93.10;;;;;;5053998;28;20501;-75
2023/12/31 06:43:20;;;;;;;4.93;1.90;;;9.90;92.80;;;;;;5049688;28;20270;-76
2023/12/31 06:45:46;;;;;;;3.15;1.25;;;9.70;92.50;;;;;;5031072;28;20140;-76
2023/12/31 06:48:12;;;;;;;3.30;1.30;;;9.50;92.20;;;;;;5048591;28;20124;-75
2023/12/31 06:50:37;;;;;;;3.78;1.50;;;9.40;92.40;;;;;;5053312;28;20135;-76
2023/12/31 06:53:03;;;;;;;3.88;1.45;;;9.30;92.40;;;;;;5048864;28;20432;-77
2023/12/31 06:55:29;;;;;;;4.40;1.80;;;9.20;92.70;;;;;;5047594;28;20457;-77
2023/12/31 06:57:54;;;;;;;4.90;1.90;;;9.20;93.20;;;;;;5053826;28;20130;-76
2023/12/31 07:00:22;;;;;;;5.75;2.08;;;9.20;93.50;;;;;;5051079;28;20056;-76
2023/12/31 07:02:47;;;;;;;5.85;2.15;;;9.30;93.80;;;;;;5032903;28;20075;-74
2023/12/31 07:05:13;;;;;;;4.18;2.03;;;9.30;93.90;;;;;;5046697;28;20021;-77
2023/12/31 07:07:40;;;;;;;6.82;2.08;;;9.30;93.60;;;;;;5051091;28;20025;-75
2023/12/31 07:10:06;;;;;;;5.38;2.00;;;9.30;93.40;;;;;;5049788;28;20039;-76
2023/12/31 07:12:33;;;;;;;6.55;2.25;;;9.30;93.30;;;;;;5051768;28;20512;-75
2023/12/31 07:14:59;;;;;;;5.20;1.92;;;9.30;93.10;;;;;;5049924;28;20098;-76
2023/12/31 07:17:24;;;;;;;3.90;1.77;;;9.30;93.10;;;;;;5045853;28;20025;-77
2023/12/31 07:19:50;;;;;;;6.18;1.80;;;9.20;93.10;;;;;;5043871;28;20020;-74
2023/12/31 07:22:15;;;;;;;5.00;1.77;;;9.10;93.10;;;;;;5050222;28;20445;-75
2023/12/31 07:24:41;;;;;;;4.18;1.50;;;9.10;93.10;;;;;;5032527;28;20078;-76
2023/12/31 07:27:08;;;;;;;5.32;1.52;;;9.10;93.10;;;;;;5045922;28;20437;-76
2023/12/31 07:29:34;;;;;;;3.17;1.77;;;9.10;93.00;;;;;;5049030;28;20041;-76
2023/12/31 07:31:59;;;;;;;6.80;1.60;;;9.10;93.00;;;;;;5048598;28;20032;-77
2023/12/31 07:34:25;;;;;;;3.17;1.45;;;9.10;92.90;;;;;;5049596;28;20158;-76
2023/12/31 07:36:50;;;;;;;4.82;1.48;;;9.10;92.70;;;;;;5044169;28;20057;-75
2023/12/31 07:39:16;;;;;;;3.25;1.60;;;9.10;92.60;;;;;;5051157;28;20263;-76
2023/12/31 07:41:45;;;;;;;3.88;1.55;;;9.10;92.50;;;;;;5050953;28;20032;-77
2023/12/31 07:44:11;;;;;;;4.13;1.58;;;9.20;92.40;;;;;;5049240;28;20383;-76
2023/12/31 07:46:37;;;;;;;2.78;1.80;;;9.20;92.20;;;;;;5048662;28;20033;-76
2023/12/31 07:49:03;;;;;;;4.03;1.50;;;9.20;92.00;;;;;;5049960;28;20642;-76
2023/12/31 07:51:29;;;;;;;4.05;1.70;;;9.20;91.90;;;;;;5047563;28;20026;-76
2023/12/31 07:53:55;;;;;;;3.75;1.83;;;9.20;92.00;;;;;;5050651;28;20071;-77
2023/12/31 07:56:21;;;;;;;3.90;1.90;;;9.30;91.90;;;;;;5033213;28;20029;-75
2023/12/31 07:58:46;;;;;;;4.20;1.90;;;9.30;91.90;;;;;;5053520;28;20356;-76
2023/12/31 08:01:12;;;;;;;4.47;1.90;;;9.30;91.80;;;;;;5054248;28;20119;-76
2023/12/31 08:03:38;;;;;;;6.43;2.17;;;9.30;91.70;;;;;;5041324;28;20032;-77
2023/12/31 08:06:04;;;;;;;4.80;1.75;;;9.30;91.80;;;;;;5058987;28;20082;-75
2023/12/31 08:08:30;;;;;;;5.70;1.90;;;9.30;91.90;;;;;;5061601;28;20036;-75
2023/12/31 08:10:59;;;;;;;7.45;1.80;;;9.40;91.70;;;;;;5082087;28;20028;-75
2023/12/31 08:13:25;;;;;;;4.75;1.88;;;9.40;91.70;;;;;;5077474;28;20037;-76
2023/12/31 08:15:50;;;;;;;5.47;2.47;;;9.40;91.80;;;;;;5077648;28;20044;-77
2023/12/31 08:18:16;;;;;;;4.57;2.20;;;9.40;91.90;;;;;;5057832;28;20743;-77
2023/12/31 08:20:42;;;;;;;4.47;1.98;;;9.40;92.00;;;;;;5053598;28;20078;-75
2023/12/31 08:23:08;;;;;;;4.00;2.15;;;9.50;92.00;;;;;;5040421;28;20032;-75
2023/12/31 08:25:34;;;;;;;3.75;1.90;;;9.40;92.10;;;;;;5052118;28;20345;-79
2023/12/31 08:27:59;;;;;;;3.85;1.75;;;9.50;91.90;;;;;;5056011;28;20048;-77
2023/12/31 08:30:25;;;;;;;3.47;1.90;;;9.50;91.80;;;;;;5056901;28;20024;-75
2023/12/31 08:32:51;;;;;;;3.83;1.70;;;9.50;91.60;;;;;;5052125;28;20436;-75
2023/12/31 08:35:16;;;;;;;5.18;1.83;;;9.50;91.10;;;;;;5053175;28;20021;-77
2023/12/31 08:37:43;;;;;;;3.88;1.52;;;9.60;91.10;;;;;;5049907;28;20107;-76
2023/12/31 08:40:10;;;;;;;3.95;1.70;;;9.60;90.60;;;;;;5053428;28;20032;-76
2023/12/31 08:42:35;;;;;;;5.13;1.77;;;9.70;90.30;;;;;;5052574;28;20044;-77
2023/12/31 08:45:06;;;;;;;3.70;2.28;;;9.70;90.30;;;;;;5051609;28;20024;-75
2023/12/31 08:47:32;;;;;;;5.07;1.63;;;9.70;90.10;;;;;;5056986;28;20029;-76
2023/12/31 08:49:58;;;;;;;4.10;1.90;;;9.80;89.70;;;;;;5053656;28;20127;-77
2023/12/31 08:52:23;;;;;;;4.30;1.50;;;9.70;89.50;;;;;;5052433;28;20169;-78
2023/12/31 08:54:49;;;;;;;6.43;1.85;;;9.70;89.40;;;;;;5030046;28;20393;-77
2023/12/31 08:57:15;;;;;;;4.95;1.80;;;9.70;89.20;;;;;;5049260;28;20138;-77
2023/12/31 08:59:40;;;;;;;3.83;1.42;;;9.70;89.40;;;;;;5054198;28;20044;-74
2023/12/31 09:02:06;;;;;;;6.55;1.45;;;9.80;89.60;;;;;;5052130;28;20095;-75
2023/12/31 09:04:34;;;;;;;5.25;1.60;;;9.70;89.70;;;;;;5050454;28;20048;-76
2023/12/31 09:07:00;;;;;;;4.30;1.50;;;9.70;89.90;;;;;;5051197;28;20036;-77
2023/12/31 09:09:26;;;;;;;4.95;1.55;;;9.70;90.50;;;;;;5051804;28;20036;-76
2023/12/31 09:11:52;;;;;;;4.40;1.70;;;9.60;91.00;;;;;;5051330;28;20298;-76
2023/12/31 09:14:17;;;;;;;3.03;1.45;;;9.50;91.50;;;;;;5054017;28;20040;-75
2023/12/31 09:16:43;;;;;;;8.05;3.40;;;9.40;91.90;;;;;;5050392;28;20079;-76
2023/12/31 09:19:09;;;;;;;4.18;1.48;;;9.30;92.20;;;;;;5045422;28;20045;-78
2023/12/31 09:21:34;;;;;;;4.10;1.77;;;9.30;92.00;;;;;;5050663;28;20086;-77
2023/12/31 09:24:00;;;;;;;3.75;1.73;;;9.30;91.90;;;;;;5052031;28;20040;-77
2023/12/31 09:26:25;;;;;;;8.10;3.88;;;9.30;91.90;;;;;;5056520;28;20016;-77
2023/12/31 09:28:51;;;;;;;6.72;3.47;;;9.30;92.20;;;;;;5034821;28;20040;-77
2023/12/31 09:31:17;;;;;;;4.93;2.20;;;9.30;92.50;;;;;;5051412;28;20831;-76
2023/12/31 09:33:42;;;;;;;6.28;1.52;;;9.30;92.70;;;;;;5047855;28;20206;-77
2023/12/31 09:36:09;;;;;;;4.05;1.70;;;9.20;92.10;;;;;;5049939;28;20257;-76
2023/12/31 09:38:34;;;;;;;5.00;1.70;;;9.10;91.00;;;;;;5051432;28;20041;-76
2023/12/31 09:41:00;;;;;;;3.92;1.33;;;9.10;90.20;;;;;;5043772;28;20090;-77
2023/12/31 09:43:27;;;;;;;4.05;1.33;;;8.90;88.70;;;;;;5051331;28;20021;-75
2023/12/31 09:45:56;;;;;;;4.78;2.00;;;9.00;88.40;;;;;;5054103;28;20017;-74
2023/12/31 09:48:23;;;;;;;4.82;1.50;;;8.80;88.10;;;;;;5049512;28;20029;-74
2023/12/31 09:50:49;;;;;;;5.97;2.17;;;8.90;88.30;;;;;;5033471;28;20377;-74
2023/12/31 09:53:17;;;;;;;4.03;1.52;;;8.80;87.90;;;;;;5043971;28;20374;-75
2023/12/31 09:55:42;;;;;;;5.15;1.50;;;8.70;87.80;;;;;;5053411;28;20478;-74
2023/12/31 09:58:09;;;;;;;4.97;1.90;;;8.70;88.10;;;;;;5053416;28;20028;-74
2023/12/31 10:00:35;;;;;;;6.43;2.58;;;8.70;88.40;;;;;;5054244;28;20393;-72
2023/12/31 10:03:02;;;;;;;5.88;2.28;;;8.70;88.40;;;;;;5046216;28;20025;-73
2023/12/31 10:05:30;;;;;;;7.35;2.78;;;8.70;88.30;;;;;;5032975;28;20476;-75
2023/12/31 10:07:56;;;;;;;8.38;2.70;;;8.70;88.00;;;;;;5052049;28;20025;-74
2023/12/31 10:10:24;;;;;;;9.50;2.33;;;8.70;88.20;;;;;;5055625;28;20576;-75
2023/12/31 10:12:50;;;;;;;14.05;5.88;;;8.70;88.10;;;;;;5055992;28;20131;-74
2023/12/31 10:15:16;;;;;;;27.13;15.63;;;8.70;87.90;;;;;;5033433;28;20254;-74
2023/12/31 10:17:41;;;;;;;16.30;10.00;;;8.70;88.20;;;;;;5060564;28;20480;-74
2023/12/31 10:20:08;;;;;;;8.95;3.05;;;8.80;88.10;;;;;;5050481;28;20036;-73
2023/12/31 10:22:35;;;;;;;10.05;5.03;;;8.80;87.70;;;;;;5050581;28;20532;-74
2023/12/31 10:25:16;;;;;;;10.07;5.50;;;8.80;87.50;;;;;;5054723;28;20044;-74
2023/12/31 10:27:47;;;;;;;8.15;3.22;;;8.80;87.40;;;;;;5047813;28;20040;-75
2023/12/31 10:30:13;;;;;;;7.03;2.40;;;8.70;87.40;;;;;;5048852;28;20050;-74
2023/12/31 10:32:39;;;;;;;8.60;3.85;;;8.70;87.40;;;;;;5038612;28;20056;-74
2023/12/31 10:35:06;;;;;;;7.65;3.28;;;8.80;87.40;;;;;;5052455;28;20094;-75
2023/12/31 10:37:34;;;;;;;8.30;4.00;;;8.80;87.60;;;;;;5048282;28;20597;-76
2023/12/31 10:40:22;;;;;;;6.68;2.75;;;8.80;87.80;;;;;;5053347;28;20024;-75
2023/12/31 10:42:55;;;;;;;8.15;3.63;;;8.80;88.10;;;;;;5052384;28;20150;-74
2023/12/31 10:45:22;;;;;;;11.65;6.07;;;8.90;88.20;;;;;;5047176;28;20050;-74
2023/12/31 10:47:57;;;;;;;10.50;3.50;;;8.90;88.10;;;;;;5048341;28;20028;-74
2023/12/31 10:50:24;;;;;;;8.40;4.10;;;9.10;88.20;;;;;;5030390;28;20688;-74
2023/12/31 10:52:53;;;;;;;12.77;6.72;;;9.20;87.90;;;;;;5055792;28;20040;-75
2023/12/31 10:55:19;;;;;;;13.25;5.85;;;9.30;87.50;;;;;;5048760;28;20028;-74
2023/12/31 10:57:46;;;;;;;10.27;5.30;;;9.30;87.70;;;;;;5048585;28;20048;-73
2023/12/31 11:00:13;;;;;;;11.65;4.28;;;9.40;87.50;;;;;;5052896;28;20102;-74
2023/12/31 11:02:41;;;;;;;9.68;3.75;;;9.40;87.50;;;;;;5035348;28;20427;-74
2023/12/31 11:05:08;;;;;;;10.00;4.07;;;9.40;87.30;;;;;;5044897;28;20036;-74
2023/12/31 11:07:35;;;;;;;9.52;3.25;;;9.50;87.30;;;;;;5043529;28;20056;-76
2023/12/31 11:10:02;;;;;;;10.88;4.55;;;9.50;87.20;;;;;;5049498;28;20036;-73
2023/12/31 11:12:28;;;;;;;10.85;3.97;;;9.60;87.20;;;;;;5046650;28;20037;-74
2023/12/31 11:15:01;;;;;;;11.02;3.33;;;9.60;87.10;;;;;;5051865;28;20017;-75
2023/12/31 11:18:04;;;;;;;10.95;3.50;;;9.60;86.60;;;;;;5045367;28;20331;-75
2023/12/31 11:20:47;;;;;;;9.38;2.88;;;9.60;86.40;;;;;;5049663;28;20029;-74
2023/12/31 11:23:37;;;;;;;9.82;3.90;;;9.60;86.30;;;;;;5045295;28;20055;-73
2023/12/31 11:26:05;;;;;;;10.07;3.17;;;9.70;86.00;;;;;;5047031;28;20658;-74
2023/12/31 11:28:32;;;;;;;11.77;3.92;;;9.60;86.20;;;;;;5051772;28;20470;-74
2023/12/31 11:31:02;;;;;;;13.55;4.22;;;9.60;86.30;;;;;;5047767;28;20025;-75
2023/12/31 11:33:33;;;;;;;13.23;3.40;;;9.60;86.50;;;;;;5047359;28;20112;-74
2023/12/31 11:36:05;;;;;;;10.90;3.55;;;9.60;86.20;;;;;;5055760;28;20111;-74
2023/12/31 11:38:56;;;;;;;12.00;4.10;;;9.70;86.10;;;;;;5050384;28;20135;-76
2023/12/31 11:41:24;;;;;;;11.50;3.15;;;9.90;85.70;;;;;;5053589;28;20247;-73
2023/12/31 11:43:52;;;;;;;9.43;2.65;;;10.00;85.40;;;;;;5051267;28;20056;-74
2023/12/31 11:46:37;;;;;;;7.55;2.90;;;10.10;85.00;;;;;;5053573;28;20085;-75
2023/12/31 11:49:03;;;;;;;10.73;3.03;;;10.20;84.70;;;;;;5050099;28;20035;-76
2023/12/31 11:51:49;;;;;;;8.30;2.83;;;10.20;84.30;;;;;;5054472;28;20033;-75
2023/12/31 11:54:21;;;;;;;10.38;2.90;;;10.20;84.10;;;;;;5048908;28;20063;-74
2023/12/31 11:56:47;;;;;;;9.68;2.83;;;10.20;84.00;;;;;;5046802;28;20031;-74
2023/12/31 11:59:15;;;;;;;9.43;2.55;;;10.20;84.40;;;;;;5048329;28;20024;-73
2023/12/31 12:01:43;;;;;;;11.43;3.28;;;10.20;84.10;;;;;;5042576;28;20028;-77
2023/12/31 12:04:10;;;;;;;7.85;2.70;;;10.10;84.00;;;;;;5042372;28;20519;-73
2023/12/31 12:06:36;;;;;;;9.13;3.03;;;10.20;83.80;;;;;;5038652;28;20392;-76
2023/12/31 12:09:02;;;;;;;12.13;3.80;;;10.10;83.60;;;;;;5048659;28;20033;-76
2023/12/31 12:11:27;;;;;;;12.15;3.55;;;10.20;83.70;;;;;;5043025;28;20107;-76
2023/12/31 12:13:53;;;;;;;11.02;3.70;;;10.30;83.20;;;;;;5045335;28;20035;-74
2023/12/31 12:16:18;;;;;;;11.35;3.05;;;10.40;82.60;;;;;;5048111;28;20098;-75
2023/12/31 12:18:44;;;;;;;9.45;2.97;;;10.50;82.20;;;;;;5044013;28;20064;-74
2023/12/31 12:21:10;;;;;;;8.27;2.55;;;10.50;81.60;;;;;;5054181;28;20031;-77
2023/12/31 12:23:35;;;;;;;14.88;3.58;;;10.50;82.00;;;;;;5047589;28;20506;-73
2023/12/31 12:26:03;;;;;;;10.50;3.05;;;10.50;81.60;;;;;;5052094;28;20035;-76
2023/12/31 12:28:30;;;;;;;11.35;2.88;;;10.40;81.80;;;;;;5049283;28;20032;-75
2023/12/31 12:30:57;;;;;;;11.63;3.60;;;10.50;81.50;;;;;;5043190;28;20190;-75
2023/12/31 12:33:23;;;;;;;12.05;3.20;;;10.50;81.40;;;;;;5050542;28;20089;-76
2023/12/31 12:35:49;;;;;;;11.35;3.58;;;10.40;81.10;;;;;;5049509;28;20040;-76
2023/12/31 12:38:16;;;;;;;16.27;6.07;;;10.40;81.50;;;;;;5049590;28;20053;-75
2023/12/31 12:40:42;;;;;;;10.68;2.97;;;10.40;81.50;;;;;;5050208;28;20024;-74
2023/12/31 12:43:07;;;;;;;9.35;3.45;;;10.30;81.70;;;;;;5053168;28;20051;-73
2023/12/31 12:45:33;;;;;;;13.57;3.65;;;10.30;81.20;;;;;;5034629;28;20074;-75
2023/12/31 12:47:59;;;;;;;12.10;3.20;;;10.30;81.20;;;;;;5049697;28;20761;-75